Plainview, Louisiana
Current Conditions -  °F | °C
As of 8:30 PM on Monday 22 Dec 2014 (Local Time) from KASD Reporting Station
Overcast Overcast  
Wind Chill: 70°   Ceiling: 1300
Heat Index: 70°   Visibility: 7mi
Dew Point: 66°   Wind: 6mph
Humidity: 87%   Direction: 190°S
Pressure: 29.73"   Gusts: NA
Location:  30.7419°N, 89.8828°W
Report Text: KASD 230230Z AUTO 19005KT 7SM FEW008 BKN013 OVC018 21/19 A2973 RMK AO2 T02110189
Loading
Personal Weather Stations






























Interactive Weather Map New forecast layout! Learn more

10-Day Weather Forecast

Advertisements
Track Severe Weather on mobile